Terminal Aerodrome Forecast
Issued by NWS

Home | Current Version | Previous Version | Text Only | Print | Product List | Glossary On
Versions: 1 2 3 4 5 6 7 8 9 10 11 12 13 14 15 16 17 18 19 20 21
852
FTUS44 KLIX 201743
TAFGPT
TAF
KGPT 201743Z 2018/2118 19006KT P6SM BKN025
     FM202100 17006KT P6SM VCSH SCT025
     FM210000 16006KT P6SM BKN015
     FM210200 16006KT P6SM BKN008
     FM210900 17010KT 2SM BR VCSH OVC005
      TEMPO 2109/2112 24035G50KT 1/2SM +TSRA BKN005 OVC015CB
     FM211400 20009KT P6SM OVC010=

USA.gov is the U.S. government's official web portal to all federal, state and local government web resources and services.